sensor_id;sensor_type;location;lat;lon;timestamp;P1;durP1;ratioP1;P2;durP2;ratioP2
17886;SDS011;9069;52.044;7.472;2023-05-02T00:01:18;16.55;;;9.93;;
17886;SDS011;9069;52.044;7.472;2023-05-02T00:03:45;15.48;;;10.23;;
17886;SDS011;9069;52.044;7.472;2023-05-02T00:06:12;15.98;;;9.77;;
17886;SDS011;9069;52.044;7.472;2023-05-02T00:08:39;16.85;;;9.98;;
17886;SDS011;9069;52.044;7.472;2023-05-02T00:11:06;17.17;;;10.88;;
17886;SDS011;9069;52.044;7.472;2023-05-02T00:13:33;18.42;;;11.43;;
17886;SDS011;9069;52.044;7.472;2023-05-02T00:16:00;18.90;;;11.45;;
17886;SDS011;9069;52.044;7.472;2023-05-02T00:18:27;16.63;;;10.98;;
17886;SDS011;9069;52.044;7.472;2023-05-02T00:20:54;20.80;;;13.18;;
17886;SDS011;9069;52.044;7.472;2023-05-02T00:23:21;22.38;;;12.85;;
17886;SDS011;9069;52.044;7.472;2023-05-02T00:25:49;20.73;;;13.45;;
17886;SDS011;9069;52.044;7.472;2023-05-02T00:28:16;21.45;;;13.10;;
17886;SDS011;9069;52.044;7.472;2023-05-02T00:30:43;23.15;;;14.60;;
17886;SDS011;9069;52.044;7.472;2023-05-02T00:33:11;20.67;;;13.02;;
17886;SDS011;9069;52.044;7.472;2023-05-02T00:35:40;21.30;;;13.40;;
17886;SDS011;9069;52.044;7.472;2023-05-02T00:38:07;19.73;;;12.48;;
17886;SDS011;9069;52.044;7.472;2023-05-02T00:40:52;22.35;;;13.93;;
17886;SDS011;9069;52.044;7.472;2023-05-02T00:43:19;22.45;;;13.85;;
17886;SDS011;9069;52.044;7.472;2023-05-02T00:45:46;20.30;;;12.93;;
17886;SDS011;9069;52.044;7.472;2023-05-02T00:48:13;20.80;;;11.73;;
17886;SDS011;9069;52.044;7.472;2023-05-02T00:50:42;17.95;;;11.55;;
17886;SDS011;9069;52.044;7.472;2023-05-02T00:53:09;22.63;;;12.65;;
17886;SDS011;9069;52.044;7.472;2023-05-02T00:55:36;21.42;;;13.48;;
17886;SDS011;9069;52.044;7.472;2023-05-02T00:58:05;20.83;;;12.75;;
17886;SDS011;9069;52.044;7.472;2023-05-02T01:03:26;20.63;;;12.98;;
17886;SDS011;9069;52.044;7.472;2023-05-02T01:08:38;20.05;;;12.85;;
17886;SDS011;9069;52.044;7.472;2023-05-02T01:11:15;23.00;;;13.73;;
17886;SDS011;9069;52.044;7.472;2023-05-02T01:13:48;21.67;;;13.65;;
17886;SDS011;9069;52.044;7.472;2023-05-02T01:16:18;23.35;;;14.40;;
17886;SDS011;9069;52.044;7.472;2023-05-02T01:18:46;21.52;;;13.60;;
17886;SDS011;9069;52.044;7.472;2023-05-02T01:21:15;24.85;;;13.60;;
17886;SDS011;9069;52.044;7.472;2023-05-02T01:26:35;22.98;;;14.00;;
17886;SDS011;9069;52.044;7.472;2023-05-02T01:29:13;25.42;;;14.98;;
17886;SDS011;9069;52.044;7.472;2023-05-02T01:31:41;22.08;;;13.45;;
17886;SDS011;9069;52.044;7.472;2023-05-02T01:34:11;22.27;;;14.60;;
17886;SDS011;9069;52.044;7.472;2023-05-02T01:36:42;28.60;;;15.40;;
17886;SDS011;9069;52.044;7.472;2023-05-02T01:39:12;27.05;;;15.23;;
17886;SDS011;9069;52.044;7.472;2023-05-02T01:41:42;24.15;;;14.25;;
17886;SDS011;9069;52.044;7.472;2023-05-02T01:44:09;29.70;;;14.40;;
17886;SDS011;9069;52.044;7.472;2023-05-02T01:46:39;25.30;;;14.35;;
17886;SDS011;9069;52.044;7.472;2023-05-02T01:49:08;25.30;;;13.95;;
17886;SDS011;9069;52.044;7.472;2023-05-02T01:51:43;22.23;;;13.48;;
17886;SDS011;9069;52.044;7.472;2023-05-02T01:54:13;21.55;;;13.25;;
17886;SDS011;9069;52.044;7.472;2023-05-02T01:56:42;23.52;;;13.30;;
17886;SDS011;9069;52.044;7.472;2023-05-02T01:59:13;24.08;;;13.02;;
17886;SDS011;9069;52.044;7.472;2023-05-02T02:01:43;22.75;;;13.30;;
17886;SDS011;9069;52.044;7.472;2023-05-02T02:04:11;22.30;;;13.65;;
17886;SDS011;9069;52.044;7.472;2023-05-02T02:06:41;21.85;;;12.48;;
17886;SDS011;9069;52.044;7.472;2023-05-02T02:09:12;23.38;;;13.10;;
17886;SDS011;9069;52.044;7.472;2023-05-02T02:11:48;23.23;;;13.65;;
17886;SDS011;9069;52.044;7.472;2023-05-02T02:14:24;23.20;;;12.55;;
17886;SDS011;9069;52.044;7.472;2023-05-02T02:16:53;21.55;;;12.82;;
17886;SDS011;9069;52.044;7.472;2023-05-02T02:19:21;22.13;;;11.73;;
17886;SDS011;9069;52.044;7.472;2023-05-02T02:21:49;23.48;;;13.23;;
17886;SDS011;9069;52.044;7.472;2023-05-02T02:24:19;18.55;;;10.88;;
17886;SDS011;9069;52.044;7.472;2023-05-02T02:26:47;18.70;;;11.73;;
17886;SDS011;9069;52.044;7.472;2023-05-02T02:29:14;20.52;;;11.60;;
17886;SDS011;9069;52.044;7.472;2023-05-02T02:31:41;20.70;;;11.52;;
17886;SDS011;9069;52.044;7.472;2023-05-02T02:34:08;21.45;;;11.27;;
17886;SDS011;9069;52.044;7.472;2023-05-02T02:42:05;19.13;;;10.80;;
17886;SDS011;9069;52.044;7.472;2023-05-02T02:44:46;17.27;;;10.25;;
17886;SDS011;9069;52.044;7.472;2023-05-02T02:52:32;15.60;;;10.00;;
17886;SDS011;9069;52.044;7.472;2023-05-02T02:55:06;17.08;;;10.00;;
17886;SDS011;9069;52.044;7.472;2023-05-02T03:00:17;15.43;;;9.30;;
17886;SDS011;9069;52.044;7.472;2023-05-02T03:02:46;17.92;;;9.95;;
17886;SDS011;9069;52.044;7.472;2023-05-02T03:05:13;16.50;;;8.90;;
17886;SDS011;9069;52.044;7.472;2023-05-02T03:07:41;15.23;;;9.50;;
17886;SDS011;9069;52.044;7.472;2023-05-02T03:10:08;13.75;;;8.88;;
17886;SDS011;9069;52.044;7.472;2023-05-02T03:12:37;13.68;;;9.02;;
17886;SDS011;9069;52.044;7.472;2023-05-02T03:15:21;14.70;;;9.13;;
17886;SDS011;9069;52.044;7.472;2023-05-02T03:17:53;15.65;;;8.73;;
17886;SDS011;9069;52.044;7.472;2023-05-02T03:20:20;15.07;;;8.68;;
17886;SDS011;9069;52.044;7.472;2023-05-02T03:22:47;16.58;;;9.18;;
17886;SDS011;9069;52.044;7.472;2023-05-02T03:25:14;19.98;;;9.25;;
17886;SDS011;9069;52.044;7.472;2023-05-02T03:27:44;16.58;;;8.98;;
17886;SDS011;9069;52.044;7.472;2023-05-02T03:30:12;15.90;;;8.38;;
17886;SDS011;9069;52.044;7.472;2023-05-02T03:32:39;16.10;;;8.45;;
17886;SDS011;9069;52.044;7.472;2023-05-02T03:35:05;16.65;;;8.15;;
17886;SDS011;9069;52.044;7.472;2023-05-02T03:37:37;14.57;;;7.85;;
17886;SDS011;9069;52.044;7.472;2023-05-02T03:40:04;13.13;;;7.28;;
17886;SDS011;9069;52.044;7.472;2023-05-02T03:42:33;13.82;;;7.65;;
17886;SDS011;9069;52.044;7.472;2023-05-02T03:45:08;13.05;;;7.10;;
17886;SDS011;9069;52.044;7.472;2023-05-02T03:47:35;12.30;;;7.32;;
17886;SDS011;9069;52.044;7.472;2023-05-02T03:50:02;11.82;;;6.75;;
17886;SDS011;9069;52.044;7.472;2023-05-02T03:52:32;11.57;;;6.30;;
17886;SDS011;9069;52.044;7.472;2023-05-02T03:55:00;10.57;;;5.53;;
17886;SDS011;9069;52.044;7.472;2023-05-02T03:57:31;13.40;;;5.68;;
17886;SDS011;9069;52.044;7.472;2023-05-02T03:59:58;7.80;;;4.50;;
17886;SDS011;9069;52.044;7.472;2023-05-02T04:02:36;6.07;;;4.15;;
17886;SDS011;9069;52.044;7.472;2023-05-02T04:05:08;7.93;;;4.13;;
17886;SDS011;9069;52.044;7.472;2023-05-02T04:07:35;6.85;;;3.70;;
17886;SDS011;9069;52.044;7.472;2023-05-02T04:10:05;7.25;;;3.78;;
17886;SDS011;9069;52.044;7.472;2023-05-02T04:12:37;7.05;;;3.63;;
17886;SDS011;9069;52.044;7.472;2023-05-02T04:15:05;5.35;;;3.42;;
17886;SDS011;9069;52.044;7.472;2023-05-02T04:17:32;5.03;;;2.50;;
17886;SDS011;9069;52.044;7.472;2023-05-02T04:19:59;2.88;;;2.00;;
17886;SDS011;9069;52.044;7.472;2023-05-02T04:22:32;2.25;;;1.58;;
17886;SDS011;9069;52.044;7.472;2023-05-02T04:25:03;3.28;;;2.00;;
17886;SDS011;9069;52.044;7.472;2023-05-02T04:27:32;1.42;;;1.10;;
17886;SDS011;9069;52.044;7.472;2023-05-02T04:29:59;3.55;;;1.55;;
17886;SDS011;9069;52.044;7.472;2023-05-02T04:32:26;2.17;;;1.70;;
17886;SDS011;9069;52.044;7.472;2023-05-02T04:34:54;2.42;;;1.33;;
17886;SDS011;9069;52.044;7.472;2023-05-02T04:37:22;2.50;;;1.50;;
17886;SDS011;9069;52.044;7.472;2023-05-02T04:39:48;4.93;;;1.90;;
17886;SDS011;9069;52.044;7.472;2023-05-02T04:42:19;2.28;;;1.60;;
17886;SDS011;9069;52.044;7.472;2023-05-02T04:45:05;6.15;;;2.28;;
17886;SDS011;9069;52.044;7.472;2023-05-02T04:47:32;1.85;;;1.48;;
17886;SDS011;9069;52.044;7.472;2023-05-02T04:49:59;4.75;;;1.67;;
17886;SDS011;9069;52.044;7.472;2023-05-02T04:52:27;2.13;;;1.50;;
17886;SDS011;9069;52.044;7.472;2023-05-02T04:54:55;4.30;;;1.58;;
17886;SDS011;9069;52.044;7.472;2023-05-02T04:57:22;5.28;;;1.75;;
17886;SDS011;9069;52.044;7.472;2023-05-02T04:59:53;3.58;;;1.30;;
17886;SDS011;9069;52.044;7.472;2023-05-02T05:02:20;2.53;;;1.50;;
17886;SDS011;9069;52.044;7.472;2023-05-02T05:04:47;2.88;;;1.60;;
17886;SDS011;9069;52.044;7.472;2023-05-02T05:07:15;3.83;;;1.73;;
17886;SDS011;9069;52.044;7.472;2023-05-02T05:09:44;2.58;;;1.60;;
17886;SDS011;9069;52.044;7.472;2023-05-02T05:12:11;2.67;;;1.50;;
17886;SDS011;9069;52.044;7.472;2023-05-02T05:14:37;2.78;;;1.80;;
17886;SDS011;9069;52.044;7.472;2023-05-02T05:17:04;4.68;;;1.50;;
17886;SDS011;9069;52.044;7.472;2023-05-02T05:19:31;3.90;;;1.70;;
17886;SDS011;9069;52.044;7.472;2023-05-02T05:21:58;3.55;;;1.40;;
17886;SDS011;9069;52.044;7.472;2023-05-02T05:24:25;4.85;;;1.90;;
17886;SDS011;9069;52.044;7.472;2023-05-02T05:26:54;6.00;;;1.80;;
17886;SDS011;9069;52.044;7.472;2023-05-02T05:29:21;2.83;;;1.48;;
17886;SDS011;9069;52.044;7.472;2023-05-02T05:31:48;2.80;;;1.88;;
17886;SDS011;9069;52.044;7.472;2023-05-02T05:34:16;3.28;;;1.50;;
17886;SDS011;9069;52.044;7.472;2023-05-02T05:36:45;3.83;;;1.80;;
17886;SDS011;9069;52.044;7.472;2023-05-02T05:39:12;2.50;;;1.60;;
17886;SDS011;9069;52.044;7.472;2023-05-02T05:41:41;3.53;;;1.60;;
17886;SDS011;9069;52.044;7.472;2023-05-02T05:44:10;4.30;;;1.52;;
17886;SDS011;9069;52.044;7.472;2023-05-02T05:46:37;5.63;;;1.77;;
17886;SDS011;9069;52.044;7.472;2023-05-02T05:49:05;3.92;;;2.00;;
17886;SDS011;9069;52.044;7.472;2023-05-02T05:51:34;3.10;;;1.30;;
17886;SDS011;9069;52.044;7.472;2023-05-02T05:54:00;2.05;;;1.20;;
17886;SDS011;9069;52.044;7.472;2023-05-02T05:56:28;2.08;;;1.05;;
17886;SDS011;9069;52.044;7.472;2023-05-02T05:59:03;1.90;;;1.00;;
17886;SDS011;9069;52.044;7.472;2023-05-02T06:01:30;0.82;;;0.80;;
17886;SDS011;9069;52.044;7.472;2023-05-02T06:03:57;1.70;;;0.90;;
17886;SDS011;9069;52.044;7.472;2023-05-02T06:06:24;2.00;;;1.00;;
17886;SDS011;9069;52.044;7.472;2023-05-02T06:08:52;1.17;;;0.80;;
17886;SDS011;9069;52.044;7.472;2023-05-02T06:11:19;2.90;;;0.82;;
17886;SDS011;9069;52.044;7.472;2023-05-02T06:13:46;2.22;;;1.50;;
17886;SDS011;9069;52.044;7.472;2023-05-02T06:16:13;3.05;;;1.08;;
17886;SDS011;9069;52.044;7.472;2023-05-02T06:18:40;2.78;;;1.02;;
17886;SDS011;9069;52.044;7.472;2023-05-02T06:21:06;3.78;;;1.42;;
17886;SDS011;9069;52.044;7.472;2023-05-02T06:23:34;5.65;;;1.67;;
17886;SDS011;9069;52.044;7.472;2023-05-02T06:26:01;5.03;;;1.58;;
17886;SDS011;9069;52.044;7.472;2023-05-02T06:28:29;5.47;;;1.67;;
17886;SDS011;9069;52.044;7.472;2023-05-02T06:31:03;7.28;;;1.98;;
17886;SDS011;9069;52.044;7.472;2023-05-02T06:33:31;4.03;;;1.60;;
17886;SDS011;9069;52.044;7.472;2023-05-02T06:35:58;9.23;;;2.70;;
17886;SDS011;9069;52.044;7.472;2023-05-02T06:38:27;8.07;;;2.03;;
17886;SDS011;9069;52.044;7.472;2023-05-02T06:40:54;7.93;;;2.47;;
17886;SDS011;9069;52.044;7.472;2023-05-02T06:43:21;10.60;;;2.50;;
17886;SDS011;9069;52.044;7.472;2023-05-02T06:45:51;6.80;;;1.98;;
17886;SDS011;9069;52.044;7.472;2023-05-02T06:48:19;10.30;;;2.45;;
17886;SDS011;9069;52.044;7.472;2023-05-02T06:50:47;9.88;;;2.13;;
17886;SDS011;9069;52.044;7.472;2023-05-02T06:53:14;7.72;;;2.50;;
17886;SDS011;9069;52.044;7.472;2023-05-02T06:55:40;10.77;;;3.00;;
17886;SDS011;9069;52.044;7.472;2023-05-02T06:58:07;12.07;;;2.70;;
17886;SDS011;9069;52.044;7.472;2023-05-02T07:00:34;9.85;;;2.45;;
17886;SDS011;9069;52.044;7.472;2023-05-02T07:03:01;9.60;;;3.25;;
17886;SDS011;9069;52.044;7.472;2023-05-02T07:05:28;14.25;;;2.90;;
17886;SDS011;9069;52.044;7.472;2023-05-02T07:07:55;6.85;;;2.10;;
17886;SDS011;9069;52.044;7.472;2023-05-02T07:10:22;4.88;;;2.13;;
17886;SDS011;9069;52.044;7.472;2023-05-02T07:12:49;12.98;;;2.42;;
17886;SDS011;9069;52.044;7.472;2023-05-02T07:15:16;9.38;;;2.85;;
17886;SDS011;9069;52.044;7.472;2023-05-02T07:17:43;8.73;;;2.15;;
17886;SDS011;9069;52.044;7.472;2023-05-02T07:20:10;5.68;;;2.17;;
17886;SDS011;9069;52.044;7.472;2023-05-02T07:22:37;3.97;;;1.45;;
17886;SDS011;9069;52.044;7.472;2023-05-02T07:25:04;6.03;;;2.00;;
17886;SDS011;9069;52.044;7.472;2023-05-02T07:27:31;7.32;;;2.15;;
17886;SDS011;9069;52.044;7.472;2023-05-02T07:29:58;9.73;;;2.10;;
17886;SDS011;9069;52.044;7.472;2023-05-02T07:32:25;7.80;;;1.80;;
17886;SDS011;9069;52.044;7.472;2023-05-02T07:34:53;10.32;;;2.20;;
17886;SDS011;9069;52.044;7.472;2023-05-02T07:37:20;11.30;;;2.10;;
17886;SDS011;9069;52.044;7.472;2023-05-02T07:39:47;6.47;;;2.00;;
17886;SDS011;9069;52.044;7.472;2023-05-02T07:42:13;8.65;;;2.35;;
17886;SDS011;9069;52.044;7.472;2023-05-02T07:44:40;5.57;;;1.95;;
17886;SDS011;9069;52.044;7.472;2023-05-02T07:47:07;12.27;;;2.10;;
17886;SDS011;9069;52.044;7.472;2023-05-02T07:49:34;7.68;;;2.20;;
17886;SDS011;9069;52.044;7.472;2023-05-02T07:52:02;12.77;;;2.58;;
17886;SDS011;9069;52.044;7.472;2023-05-02T07:54:29;8.32;;;2.08;;
17886;SDS011;9069;52.044;7.472;2023-05-02T07:56:56;12.90;;;2.83;;
17886;SDS011;9069;52.044;7.472;2023-05-02T07:59:28;8.30;;;2.45;;
17886;SDS011;9069;52.044;7.472;2023-05-02T08:01:56;9.45;;;2.67;;
17886;SDS011;9069;52.044;7.472;2023-05-02T08:04:23;8.23;;;2.17;;
17886;SDS011;9069;52.044;7.472;2023-05-02T08:06:50;7.28;;;2.17;;
17886;SDS011;9069;52.044;7.472;2023-05-02T08:09:17;12.80;;;2.40;;
17886;SDS011;9069;52.044;7.472;2023-05-02T08:11:44;7.90;;;2.08;;
17886;SDS011;9069;52.044;7.472;2023-05-02T08:14:11;8.13;;;2.30;;
17886;SDS011;9069;52.044;7.472;2023-05-02T08:16:37;7.20;;;1.70;;
17886;SDS011;9069;52.044;7.472;2023-05-02T08:19:04;12.52;;;2.10;;
17886;SDS011;9069;52.044;7.472;2023-05-02T08:21:31;6.95;;;1.83;;
17886;SDS011;9069;52.044;7.472;2023-05-02T08:23:58;10.15;;;2.20;;
17886;SDS011;9069;52.044;7.472;2023-05-02T08:26:26;7.65;;;2.28;;
17886;SDS011;9069;52.044;7.472;2023-05-02T08:28:53;7.68;;;2.13;;
17886;SDS011;9069;52.044;7.472;2023-05-02T08:31:20;9.90;;;2.40;;
17886;SDS011;9069;52.044;7.472;2023-05-02T08:33:47;7.40;;;2.05;;
17886;SDS011;9069;52.044;7.472;2023-05-02T08:36:14;6.35;;;2.13;;
17886;SDS011;9069;52.044;7.472;2023-05-02T08:38:42;6.80;;;2.10;;
17886;SDS011;9069;52.044;7.472;2023-05-02T08:41:18;7.07;;;1.75;;
17886;SDS011;9069;52.044;7.472;2023-05-02T08:43:45;5.90;;;1.95;;
17886;SDS011;9069;52.044;7.472;2023-05-02T08:46:13;7.45;;;1.45;;
17886;SDS011;9069;52.044;7.472;2023-05-02T08:48:42;3.90;;;1.10;;
17886;SDS011;9069;52.044;7.472;2023-05-02T08:51:12;3.08;;;1.10;;
17886;SDS011;9069;52.044;7.472;2023-05-02T08:53:40;6.88;;;1.45;;
17886;SDS011;9069;52.044;7.472;2023-05-02T08:56:07;3.22;;;1.38;;
17886;SDS011;9069;52.044;7.472;2023-05-02T08:58:37;5.35;;;0.95;;
17886;SDS011;9069;52.044;7.472;2023-05-02T09:01:22;5.15;;;1.25;;
17886;SDS011;9069;52.044;7.472;2023-05-02T09:03:53;2.70;;;1.40;;
17886;SDS011;9069;52.044;7.472;2023-05-02T09:06:25;5.22;;;1.30;;
17886;SDS011;9069;52.044;7.472;2023-05-02T09:08:52;2.85;;;1.27;;
17886;SDS011;9069;52.044;7.472;2023-05-02T09:11:19;3.63;;;1.38;;
17886;SDS011;9069;52.044;7.472;2023-05-02T09:13:47;2.20;;;1.08;;
17886;SDS011;9069;52.044;7.472;2023-05-02T09:16:17;2.83;;;1.50;;
17886;SDS011;9069;52.044;7.472;2023-05-02T09:18:52;6.35;;;1.42;;
17886;SDS011;9069;52.044;7.472;2023-05-02T09:21:20;3.08;;;1.08;;
17886;SDS011;9069;52.044;7.472;2023-05-02T09:23:53;7.07;;;1.55;;
17886;SDS011;9069;52.044;7.472;2023-05-02T09:28:52;4.07;;;1.40;;
17886;SDS011;9069;52.044;7.472;2023-05-02T09:31:53;2.78;;;1.17;;
17886;SDS011;9069;52.044;7.472;2023-05-02T09:34:21;3.20;;;1.13;;
17886;SDS011;9069;52.044;7.472;2023-05-02T09:36:49;3.10;;;1.02;;
17886;SDS011;9069;52.044;7.472;2023-05-02T09:39:20;4.03;;;1.20;;
17886;SDS011;9069;52.044;7.472;2023-05-02T09:41:51;1.52;;;0.80;;
17886;SDS011;9069;52.044;7.472;2023-05-02T09:44:22;5.80;;;1.13;;
17886;SDS011;9069;52.044;7.472;2023-05-02T09:47:01;2.25;;;0.93;;
17886;SDS011;9069;52.044;7.472;2023-05-02T09:49:44;4.38;;;1.50;;
17886;SDS011;9069;52.044;7.472;2023-05-02T09:52:12;2.55;;;0.90;;
17886;SDS011;9069;52.044;7.472;2023-05-02T09:54:43;2.42;;;0.95;;
17886;SDS011;9069;52.044;7.472;2023-05-02T09:57:17;2.30;;;1.00;;
17886;SDS011;9069;52.044;7.472;2023-05-02T09:59:54;2.97;;;1.10;;
17886;SDS011;9069;52.044;7.472;2023-05-02T10:02:23;6.07;;;1.65;;
17886;SDS011;9069;52.044;7.472;2023-05-02T10:04:51;6.50;;;2.03;;
17886;SDS011;9069;52.044;7.472;2023-05-02T10:07:21;6.25;;;1.75;;
17886;SDS011;9069;52.044;7.472;2023-05-02T10:09:49;5.25;;;1.70;;
17886;SDS011;9069;52.044;7.472;2023-05-02T10:12:19;9.80;;;1.90;;
17886;SDS011;9069;52.044;7.472;2023-05-02T10:14:53;9.95;;;2.15;;
17886;SDS011;9069;52.044;7.472;2023-05-02T10:17:34;9.77;;;1.83;;
17886;SDS011;9069;52.044;7.472;2023-05-02T10:20:07;7.47;;;1.90;;
17886;SDS011;9069;52.044;7.472;2023-05-02T10:22:36;4.15;;;1.50;;
17886;SDS011;9069;52.044;7.472;2023-05-02T10:25:03;5.38;;;2.08;;
17886;SDS011;9069;52.044;7.472;2023-05-02T10:27:31;7.18;;;1.90;;
17886;SDS011;9069;52.044;7.472;2023-05-02T10:29:59;6.57;;;2.05;;
17886;SDS011;9069;52.044;7.472;2023-05-02T10:32:27;3.15;;;1.63;;
17886;SDS011;9069;52.044;7.472;2023-05-02T10:35:01;7.15;;;2.13;;
17886;SDS011;9069;52.044;7.472;2023-05-02T10:37:29;4.13;;;1.73;;
17886;SDS011;9069;52.044;7.472;2023-05-02T10:39:59;3.28;;;1.48;;
17886;SDS011;9069;52.044;7.472;2023-05-02T10:42:26;6.03;;;2.00;;
17886;SDS011;9069;52.044;7.472;2023-05-02T10:44:55;3.50;;;1.50;;
17886;SDS011;9069;52.044;7.472;2023-05-02T10:47:22;5.00;;;1.92;;
17886;SDS011;9069;52.044;7.472;2023-05-02T10:50:00;4.50;;;1.70;;
17886;SDS011;9069;52.044;7.472;2023-05-02T10:55:14;6.68;;;1.55;;
17886;SDS011;9069;52.044;7.472;2023-05-02T11:00:25;7.88;;;1.88;;
17886;SDS011;9069;52.044;7.472;2023-05-02T11:02:54;5.70;;;1.85;;
17886;SDS011;9069;52.044;7.472;2023-05-02T11:05:22;5.85;;;1.80;;
17886;SDS011;9069;52.044;7.472;2023-05-02T11:07:49;5.75;;;1.83;;
17886;SDS011;9069;52.044;7.472;2023-05-02T11:10:46;6.00;;;2.00;;
17886;SDS011;9069;52.044;7.472;2023-05-02T11:13:13;7.07;;;1.98;;
17886;SDS011;9069;52.044;7.472;2023-05-02T11:18:07;7.47;;;2.20;;
17886;SDS011;9069;52.044;7.472;2023-05-02T11:20:34;5.65;;;2.45;;
17886;SDS011;9069;52.044;7.472;2023-05-02T11:25:42;5.50;;;2.25;;
17886;SDS011;9069;52.044;7.472;2023-05-02T11:31:05;7.93;;;1.70;;
17886;SDS011;9069;52.044;7.472;2023-05-02T11:33:33;9.32;;;2.40;;
17886;SDS011;9069;52.044;7.472;2023-05-02T11:36:00;6.65;;;2.15;;
17886;SDS011;9069;52.044;7.472;2023-05-02T11:38:33;6.45;;;2.20;;
17886;SDS011;9069;52.044;7.472;2023-05-02T11:41:03;8.35;;;2.25;;
17886;SDS011;9069;52.044;7.472;2023-05-02T11:43:30;5.18;;;1.75;;
17886;SDS011;9069;52.044;7.472;2023-05-02T11:45:58;7.20;;;2.47;;
17886;SDS011;9069;52.044;7.472;2023-05-02T11:48:26;8.23;;;2.60;;
17886;SDS011;9069;52.044;7.472;2023-05-02T11:50:54;7.70;;;1.95;;
17886;SDS011;9069;52.044;7.472;2023-05-02T11:53:28;5.93;;;2.08;;
17886;SDS011;9069;52.044;7.472;2023-05-02T11:56:00;6.90;;;2.35;;
17886;SDS011;9069;52.044;7.472;2023-05-02T11:58:29;7.10;;;2.55;;
17886;SDS011;9069;52.044;7.472;2023-05-02T12:01:10;4.38;;;1.73;;
17886;SDS011;9069;52.044;7.472;2023-05-02T12:03:38;4.53;;;2.28;;
17886;SDS011;9069;52.044;7.472;2023-05-02T12:06:10;4.97;;;1.88;;
17886;SDS011;9069;52.044;7.472;2023-05-02T12:08:39;5.50;;;2.00;;
17886;SDS011;9069;52.044;7.472;2023-05-02T12:11:07;4.95;;;2.03;;
17886;SDS011;9069;52.044;7.472;2023-05-02T12:13:34;5.63;;;2.22;;
17886;SDS011;9069;52.044;7.472;2023-05-02T12:16:13;6.72;;;2.38;;
17886;SDS011;9069;52.044;7.472;2023-05-02T12:18:41;9.15;;;2.00;;
17886;SDS011;9069;52.044;7.472;2023-05-02T12:21:08;5.68;;;2.33;;
17886;SDS011;9069;52.044;7.472;2023-05-02T12:23:35;7.15;;;2.55;;
17886;SDS011;9069;52.044;7.472;2023-05-02T12:29:02;6.75;;;2.55;;
17886;SDS011;9069;52.044;7.472;2023-05-02T12:31:31;6.28;;;2.65;;
17886;SDS011;9069;52.044;7.472;2023-05-02T12:33:58;4.75;;;2.08;;
17886;SDS011;9069;52.044;7.472;2023-05-02T12:36:26;9.77;;;2.20;;
17886;SDS011;9069;52.044;7.472;2023-05-02T12:38:54;11.25;;;2.25;;
17886;SDS011;9069;52.044;7.472;2023-05-02T12:41:31;5.60;;;2.35;;
17886;SDS011;9069;52.044;7.472;2023-05-02T12:43:59;6.25;;;2.35;;
17886;SDS011;9069;52.044;7.472;2023-05-02T12:46:26;6.22;;;2.22;;
17886;SDS011;9069;52.044;7.472;2023-05-02T12:49:04;6.85;;;2.30;;
17886;SDS011;9069;52.044;7.472;2023-05-02T12:51:37;5.13;;;2.10;;
17886;SDS011;9069;52.044;7.472;2023-05-02T12:54:04;6.57;;;2.63;;
17886;SDS011;9069;52.044;7.472;2023-05-02T12:56:40;6.22;;;2.00;;
17886;SDS011;9069;52.044;7.472;2023-05-02T12:59:09;5.35;;;2.15;;
17886;SDS011;9069;52.044;7.472;2023-05-02T13:01:54;9.25;;;2.55;;
17886;SDS011;9069;52.044;7.472;2023-05-02T13:04:32;6.45;;;2.53;;
17886;SDS011;9069;52.044;7.472;2023-05-02T13:07:02;9.30;;;2.22;;
17886;SDS011;9069;52.044;7.472;2023-05-02T13:09:29;4.88;;;2.10;;
17886;SDS011;9069;52.044;7.472;2023-05-02T13:11:55;4.35;;;1.90;;
17886;SDS011;9069;52.044;7.472;2023-05-02T13:14:24;5.60;;;2.30;;
17886;SDS011;9069;52.044;7.472;2023-05-02T13:16:51;6.90;;;1.95;;
17886;SDS011;9069;52.044;7.472;2023-05-02T13:19:18;4.80;;;1.80;;
17886;SDS011;9069;52.044;7.472;2023-05-02T13:21:46;5.85;;;2.30;;
17886;SDS011;9069;52.044;7.472;2023-05-02T13:24:12;4.10;;;2.30;;
17886;SDS011;9069;52.044;7.472;2023-05-02T13:26:43;5.07;;;2.45;;
17886;SDS011;9069;52.044;7.472;2023-05-02T13:29:09;6.15;;;2.22;;
17886;SDS011;9069;52.044;7.472;2023-05-02T13:31:37;6.22;;;2.50;;
17886;SDS011;9069;52.044;7.472;2023-05-02T13:34:04;7.40;;;2.30;;
17886;SDS011;9069;52.044;7.472;2023-05-02T13:36:31;6.22;;;2.30;;
17886;SDS011;9069;52.044;7.472;2023-05-02T13:38:57;6.88;;;2.42;;
17886;SDS011;9069;52.044;7.472;2023-05-02T13:41:25;8.38;;;3.00;;
17886;SDS011;9069;52.044;7.472;2023-05-02T13:43:51;8.50;;;2.67;;
17886;SDS011;9069;52.044;7.472;2023-05-02T13:46:19;10.95;;;2.53;;
17886;SDS011;9069;52.044;7.472;2023-05-02T13:48:45;9.13;;;2.67;;
17886;SDS011;9069;52.044;7.472;2023-05-02T13:51:12;7.60;;;2.45;;
17886;SDS011;9069;52.044;7.472;2023-05-02T13:53:39;6.22;;;2.45;;
17886;SDS011;9069;52.044;7.472;2023-05-02T13:56:05;4.22;;;2.10;;
17886;SDS011;9069;52.044;7.472;2023-05-02T13:58:32;7.45;;;2.60;;
17886;SDS011;9069;52.044;7.472;2023-05-02T14:00:59;3.58;;;2.00;;
17886;SDS011;9069;52.044;7.472;2023-05-02T14:03:26;8.00;;;2.50;;
17886;SDS011;9069;52.044;7.472;2023-05-02T14:05:53;4.50;;;2.20;;
17886;SDS011;9069;52.044;7.472;2023-05-02T14:08:19;6.18;;;2.38;;
17886;SDS011;9069;52.044;7.472;2023-05-02T14:10:46;3.80;;;1.98;;
17886;SDS011;9069;52.044;7.472;2023-05-02T14:13:13;2.88;;;1.83;;
17886;SDS011;9069;52.044;7.472;2023-05-02T14:15:39;6.40;;;2.45;;
17886;SDS011;9069;52.044;7.472;2023-05-02T14:18:06;5.10;;;2.25;;
17886;SDS011;9069;52.044;7.472;2023-05-02T14:20:33;4.93;;;2.08;;
17886;SDS011;9069;52.044;7.472;2023-05-02T14:23:00;6.88;;;2.80;;
17886;SDS011;9069;52.044;7.472;2023-05-02T14:25:26;5.15;;;2.50;;
17886;SDS011;9069;52.044;7.472;2023-05-02T14:27:53;6.63;;;2.10;;
17886;SDS011;9069;52.044;7.472;2023-05-02T14:30:20;6.50;;;2.35;;
17886;SDS011;9069;52.044;7.472;2023-05-02T14:32:47;3.67;;;2.30;;
17886;SDS011;9069;52.044;7.472;2023-05-02T14:35:13;4.93;;;2.10;;
17886;SDS011;9069;52.044;7.472;2023-05-02T14:37:40;8.60;;;2.63;;
17886;SDS011;9069;52.044;7.472;2023-05-02T14:40:10;2.88;;;2.03;;
17886;SDS011;9069;52.044;7.472;2023-05-02T14:42:37;5.40;;;2.22;;
17886;SDS011;9069;52.044;7.472;2023-05-02T14:45:04;7.18;;;2.33;;
17886;SDS011;9069;52.044;7.472;2023-05-02T14:47:31;4.65;;;2.22;;
17886;SDS011;9069;52.044;7.472;2023-05-02T14:49:58;4.05;;;2.22;;
17886;SDS011;9069;52.044;7.472;2023-05-02T14:52:26;10.27;;;2.10;;
17886;SDS011;9069;52.044;7.472;2023-05-02T14:54:52;5.15;;;2.53;;
17886;SDS011;9069;52.044;7.472;2023-05-02T14:57:19;8.90;;;2.67;;
17886;SDS011;9069;52.044;7.472;2023-05-02T14:59:46;8.23;;;2.58;;
17886;SDS011;9069;52.044;7.472;2023-05-02T15:02:13;5.25;;;2.10;;
17886;SDS011;9069;52.044;7.472;2023-05-02T15:04:40;3.47;;;1.85;;
17886;SDS011;9069;52.044;7.472;2023-05-02T15:07:07;6.43;;;2.90;;
17886;SDS011;9069;52.044;7.472;2023-05-02T15:09:33;3.97;;;1.70;;
17886;SDS011;9069;52.044;7.472;2023-05-02T15:12:00;6.63;;;2.13;;
17886;SDS011;9069;52.044;7.472;2023-05-02T15:14:30;4.55;;;2.33;;
17886;SDS011;9069;52.044;7.472;2023-05-02T15:16:56;4.22;;;1.88;;
17886;SDS011;9069;52.044;7.472;2023-05-02T15:19:23;3.85;;;1.65;;
17886;SDS011;9069;52.044;7.472;2023-05-02T15:21:50;2.15;;;1.70;;
17886;SDS011;9069;52.044;7.472;2023-05-02T15:24:22;4.47;;;1.65;;
17886;SDS011;9069;52.044;7.472;2023-05-02T15:26:53;4.22;;;1.70;;
17886;SDS011;9069;52.044;7.472;2023-05-02T15:29:19;6.57;;;1.63;;
17886;SDS011;9069;52.044;7.472;2023-05-02T15:31:46;3.72;;;1.70;;
17886;SDS011;9069;52.044;7.472;2023-05-02T15:34:13;1.77;;;1.30;;
17886;SDS011;9069;52.044;7.472;2023-05-02T15:36:40;7.05;;;1.35;;
17886;SDS011;9069;52.044;7.472;2023-05-02T15:39:08;4.30;;;1.27;;
17886;SDS011;9069;52.044;7.472;2023-05-02T15:41:34;1.83;;;1.27;;
17886;SDS011;9069;52.044;7.472;2023-05-02T15:44:01;4.72;;;1.85;;
17886;SDS011;9069;52.044;7.472;2023-05-02T15:46:28;6.15;;;1.80;;